sensor_id;sensor_type;location;lat;lon;timestamp;P1;durP1;ratioP1;P2;durP2;ratioP2
4831;SDS011;2430;51.322;7.864;2023-01-29T00:01:03;6.73;;;6.00;;
4831;SDS011;2430;51.322;7.864;2023-01-29T00:03:31;8.50;;;7.60;;
4831;SDS011;2430;51.322;7.864;2023-01-29T00:05:57;8.87;;;6.70;;
4831;SDS011;2430;51.322;7.864;2023-01-29T00:08:25;6.43;;;5.40;;
4831;SDS011;2430;51.322;7.864;2023-01-29T00:10:51;12.00;;;6.10;;
4831;SDS011;2430;51.322;7.864;2023-01-29T00:13:18;10.70;;;7.40;;
4831;SDS011;2430;51.322;7.864;2023-01-29T00:15:51;11.13;;;7.70;;
4831;SDS011;2430;51.322;7.864;2023-01-29T00:18:18;7.47;;;6.63;;
4831;SDS011;2430;51.322;7.864;2023-01-29T00:20:44;10.97;;;7.50;;
4831;SDS011;2430;51.322;7.864;2023-01-29T00:23:11;9.60;;;7.40;;
4831;SDS011;2430;51.322;7.864;2023-01-29T00:25:39;7.37;;;5.90;;
4831;SDS011;2430;51.322;7.864;2023-01-29T00:28:05;8.80;;;5.80;;
4831;SDS011;2430;51.322;7.864;2023-01-29T00:30:31;6.83;;;5.93;;
4831;SDS011;2430;51.322;7.864;2023-01-29T00:32:58;10.70;;;6.50;;
4831;SDS011;2430;51.322;7.864;2023-01-29T00:35:24;7.40;;;6.43;;
4831;SDS011;2430;51.322;7.864;2023-01-29T00:37:51;6.03;;;4.47;;
4831;SDS011;2430;51.322;7.864;2023-01-29T00:40:17;7.57;;;6.17;;
4831;SDS011;2430;51.322;7.864;2023-01-29T00:42:45;13.20;;;7.63;;
4831;SDS011;2430;51.322;7.864;2023-01-29T00:45:29;9.63;;;6.53;;
4831;SDS011;2430;51.322;7.864;2023-01-29T00:47:55;8.80;;;6.93;;
4831;SDS011;2430;51.322;7.864;2023-01-29T00:50:21;12.73;;;6.13;;
4831;SDS011;2430;51.322;7.864;2023-01-29T00:52:48;9.17;;;6.67;;
4831;SDS011;2430;51.322;7.864;2023-01-29T00:55:15;11.57;;;8.07;;
4831;SDS011;2430;51.322;7.864;2023-01-29T00:57:42;9.80;;;7.47;;
4831;SDS011;2430;51.322;7.864;2023-01-29T01:00:11;10.77;;;6.50;;
4831;SDS011;2430;51.322;7.864;2023-01-29T01:02:38;10.23;;;6.40;;
4831;SDS011;2430;51.322;7.864;2023-01-29T01:05:21;8.97;;;6.10;;
4831;SDS011;2430;51.322;7.864;2023-01-29T01:07:49;18.70;;;8.80;;
4831;SDS011;2430;51.322;7.864;2023-01-29T01:10:16;9.30;;;6.47;;
4831;SDS011;2430;51.322;7.864;2023-01-29T01:12:45;10.17;;;7.47;;
4831;SDS011;2430;51.322;7.864;2023-01-29T01:15:13;9.47;;;6.20;;
4831;SDS011;2430;51.322;7.864;2023-01-29T01:17:39;7.80;;;6.07;;
4831;SDS011;2430;51.322;7.864;2023-01-29T01:20:06;7.57;;;6.80;;
4831;SDS011;2430;51.322;7.864;2023-01-29T01:22:35;8.30;;;6.43;;
4831;SDS011;2430;51.322;7.864;2023-01-29T01:25:01;7.53;;;6.70;;
4831;SDS011;2430;51.322;7.864;2023-01-29T01:27:28;10.27;;;7.80;;
4831;SDS011;2430;51.322;7.864;2023-01-29T01:29:54;14.80;;;8.50;;
4831;SDS011;2430;51.322;7.864;2023-01-29T01:32:22;9.60;;;7.73;;
4831;SDS011;2430;51.322;7.864;2023-01-29T01:34:50;11.53;;;8.40;;
4831;SDS011;2430;51.322;7.864;2023-01-29T01:37:19;8.10;;;6.60;;
4831;SDS011;2430;51.322;7.864;2023-01-29T01:39:46;14.53;;;7.70;;
4831;SDS011;2430;51.322;7.864;2023-01-29T01:42:14;8.50;;;6.40;;
4831;SDS011;2430;51.322;7.864;2023-01-29T01:44:48;9.50;;;6.87;;
4831;SDS011;2430;51.322;7.864;2023-01-29T01:47:16;11.17;;;7.77;;
4831;SDS011;2430;51.322;7.864;2023-01-29T01:49:45;13.80;;;9.20;;
4831;SDS011;2430;51.322;7.864;2023-01-29T01:52:12;11.63;;;8.10;;
4831;SDS011;2430;51.322;7.864;2023-01-29T01:54:40;15.23;;;9.30;;
4831;SDS011;2430;51.322;7.864;2023-01-29T01:57:08;15.63;;;7.93;;
4831;SDS011;2430;51.322;7.864;2023-01-29T01:59:40;10.03;;;8.40;;
4831;SDS011;2430;51.322;7.864;2023-01-29T02:02:08;11.33;;;8.43;;
4831;SDS011;2430;51.322;7.864;2023-01-29T02:04:53;10.43;;;8.13;;
4831;SDS011;2430;51.322;7.864;2023-01-29T02:07:39;8.47;;;7.67;;
4831;SDS011;2430;51.322;7.864;2023-01-29T02:10:23;13.30;;;8.03;;
4831;SDS011;2430;51.322;7.864;2023-01-29T02:12:50;9.03;;;7.77;;
4831;SDS011;2430;51.322;7.864;2023-01-29T02:15:16;9.60;;;6.13;;
4831;SDS011;2430;51.322;7.864;2023-01-29T02:17:42;7.17;;;6.07;;
4831;SDS011;2430;51.322;7.864;2023-01-29T02:20:15;8.17;;;7.13;;
4831;SDS011;2430;51.322;7.864;2023-01-29T02:28:12;9.50;;;6.40;;
4831;SDS011;2430;51.322;7.864;2023-01-29T02:30:42;8.33;;;6.20;;
4831;SDS011;2430;51.322;7.864;2023-01-29T02:33:12;10.37;;;7.73;;
4831;SDS011;2430;51.322;7.864;2023-01-29T02:35:41;9.07;;;8.00;;
4831;SDS011;2430;51.322;7.864;2023-01-29T02:38:10;11.03;;;7.70;;
4831;SDS011;2430;51.322;7.864;2023-01-29T02:40:39;7.87;;;5.77;;
4831;SDS011;2430;51.322;7.864;2023-01-29T02:43:12;15.53;;;6.43;;
4831;SDS011;2430;51.322;7.864;2023-01-29T02:45:43;8.80;;;6.03;;
4831;SDS011;2430;51.322;7.864;2023-01-29T02:48:13;5.83;;;5.23;;
4831;SDS011;2430;51.322;7.864;2023-01-29T02:50:42;13.07;;;8.90;;
4831;SDS011;2430;51.322;7.864;2023-01-29T02:53:11;12.93;;;7.33;;
4831;SDS011;2430;51.322;7.864;2023-01-29T02:55:41;7.70;;;6.33;;
4831;SDS011;2430;51.322;7.864;2023-01-29T02:58:10;9.30;;;7.17;;
4831;SDS011;2430;51.322;7.864;2023-01-29T03:00:39;6.73;;;5.90;;
4831;SDS011;2430;51.322;7.864;2023-01-29T03:03:08;8.03;;;7.20;;
4831;SDS011;2430;51.322;7.864;2023-01-29T03:05:38;7.00;;;6.23;;
4831;SDS011;2430;51.322;7.864;2023-01-29T03:08:08;6.73;;;6.03;;
4831;SDS011;2430;51.322;7.864;2023-01-29T03:10:36;9.07;;;5.83;;
4831;SDS011;2430;51.322;7.864;2023-01-29T03:13:05;9.27;;;7.00;;
4831;SDS011;2430;51.322;7.864;2023-01-29T03:15:33;9.37;;;7.60;;
4831;SDS011;2430;51.322;7.864;2023-01-29T03:18:04;10.07;;;6.93;;
4831;SDS011;2430;51.322;7.864;2023-01-29T03:20:34;6.73;;;5.23;;
4831;SDS011;2430;51.322;7.864;2023-01-29T03:23:04;11.63;;;7.37;;
4831;SDS011;2430;51.322;7.864;2023-01-29T03:25:31;9.43;;;6.27;;
4831;SDS011;2430;51.322;7.864;2023-01-29T03:28:17;7.70;;;6.90;;
4831;SDS011;2430;51.322;7.864;2023-01-29T03:31:04;8.00;;;7.20;;
4831;SDS011;2430;51.322;7.864;2023-01-29T03:33:50;7.80;;;6.90;;
4831;SDS011;2430;51.322;7.864;2023-01-29T03:36:20;8.60;;;6.90;;
4831;SDS011;2430;51.322;7.864;2023-01-29T03:38:47;8.80;;;7.30;;
4831;SDS011;2430;51.322;7.864;2023-01-29T03:41:21;7.83;;;6.40;;
4831;SDS011;2430;51.322;7.864;2023-01-29T03:43:49;9.00;;;7.70;;
4831;SDS011;2430;51.322;7.864;2023-01-29T03:46:20;14.23;;;7.47;;
4831;SDS011;2430;51.322;7.864;2023-01-29T03:48:49;9.50;;;8.33;;
4831;SDS011;2430;51.322;7.864;2023-01-29T03:51:21;11.43;;;7.20;;
4831;SDS011;2430;51.322;7.864;2023-01-29T03:53:50;14.13;;;8.97;;
4831;SDS011;2430;51.322;7.864;2023-01-29T03:56:26;8.83;;;5.97;;
4831;SDS011;2430;51.322;7.864;2023-01-29T03:58:55;8.20;;;6.10;;
4831;SDS011;2430;51.322;7.864;2023-01-29T04:01:24;11.23;;;8.07;;
4831;SDS011;2430;51.322;7.864;2023-01-29T04:03:52;20.03;;;7.80;;
4831;SDS011;2430;51.322;7.864;2023-01-29T04:06:21;9.87;;;8.23;;
4831;SDS011;2430;51.322;7.864;2023-01-29T04:08:50;9.30;;;8.03;;
4831;SDS011;2430;51.322;7.864;2023-01-29T04:11:17;9.93;;;8.03;;
4831;SDS011;2430;51.322;7.864;2023-01-29T04:13:46;13.53;;;7.53;;
4831;SDS011;2430;51.322;7.864;2023-01-29T04:16:13;18.53;;;10.07;;
4831;SDS011;2430;51.322;7.864;2023-01-29T04:18:43;12.33;;;8.80;;
4831;SDS011;2430;51.322;7.864;2023-01-29T04:21:10;8.17;;;7.20;;
4831;SDS011;2430;51.322;7.864;2023-01-29T04:23:40;11.17;;;7.07;;
4831;SDS011;2430;51.322;7.864;2023-01-29T04:26:23;9.20;;;6.63;;
4831;SDS011;2430;51.322;7.864;2023-01-29T04:28:57;8.70;;;7.33;;
4831;SDS011;2430;51.322;7.864;2023-01-29T04:31:25;8.27;;;6.93;;
4831;SDS011;2430;51.322;7.864;2023-01-29T04:33:56;10.30;;;8.13;;
4831;SDS011;2430;51.322;7.864;2023-01-29T04:36:27;13.70;;;9.03;;
4831;SDS011;2430;51.322;7.864;2023-01-29T04:39:00;8.03;;;6.63;;
4831;SDS011;2430;51.322;7.864;2023-01-29T04:41:30;9.50;;;7.00;;
4831;SDS011;2430;51.322;7.864;2023-01-29T04:44:00;8.07;;;7.33;;
4831;SDS011;2430;51.322;7.864;2023-01-29T04:46:31;10.50;;;8.60;;
4831;SDS011;2430;51.322;7.864;2023-01-29T04:49:03;10.03;;;8.23;;
4831;SDS011;2430;51.322;7.864;2023-01-29T04:51:38;13.10;;;9.23;;
4831;SDS011;2430;51.322;7.864;2023-01-29T04:54:14;12.07;;;9.20;;
4831;SDS011;2430;51.322;7.864;2023-01-29T04:56:44;10.97;;;9.50;;
4831;SDS011;2430;51.322;7.864;2023-01-29T04:59:15;19.30;;;11.13;;
4831;SDS011;2430;51.322;7.864;2023-01-29T05:01:43;13.53;;;8.70;;
4831;SDS011;2430;51.322;7.864;2023-01-29T05:04:10;16.50;;;9.27;;
4831;SDS011;2430;51.322;7.864;2023-01-29T05:06:38;8.17;;;7.00;;
4831;SDS011;2430;51.322;7.864;2023-01-29T05:09:05;10.40;;;8.77;;
4831;SDS011;2430;51.322;7.864;2023-01-29T05:11:34;15.07;;;9.80;;
4831;SDS011;2430;51.322;7.864;2023-01-29T05:14:02;12.00;;;10.50;;
4831;SDS011;2430;51.322;7.864;2023-01-29T05:16:31;10.67;;;8.17;;
4831;SDS011;2430;51.322;7.864;2023-01-29T05:19:06;16.93;;;9.13;;
4831;SDS011;2430;51.322;7.864;2023-01-29T05:21:33;10.53;;;8.93;;
4831;SDS011;2430;51.322;7.864;2023-01-29T05:24:07;16.60;;;10.93;;
4831;SDS011;2430;51.322;7.864;2023-01-29T05:26:35;15.33;;;8.90;;
4831;SDS011;2430;51.322;7.864;2023-01-29T05:29:20;16.40;;;9.30;;
4831;SDS011;2430;51.322;7.864;2023-01-29T05:31:47;14.20;;;9.57;;
4831;SDS011;2430;51.322;7.864;2023-01-29T05:34:13;14.20;;;11.10;;
4831;SDS011;2430;51.322;7.864;2023-01-29T05:36:40;15.23;;;9.47;;
4831;SDS011;2430;51.322;7.864;2023-01-29T05:39:07;12.73;;;9.80;;
4831;SDS011;2430;51.322;7.864;2023-01-29T05:41:35;16.37;;;10.70;;
4831;SDS011;2430;51.322;7.864;2023-01-29T05:44:02;15.73;;;10.37;;
4831;SDS011;2430;51.322;7.864;2023-01-29T05:46:29;15.13;;;10.13;;
4831;SDS011;2430;51.322;7.864;2023-01-29T05:48:56;15.13;;;9.97;;
4831;SDS011;2430;51.322;7.864;2023-01-29T05:51:23;15.00;;;10.63;;
4831;SDS011;2430;51.322;7.864;2023-01-29T05:53:50;19.07;;;12.50;;
4831;SDS011;2430;51.322;7.864;2023-01-29T05:56:16;12.87;;;10.60;;
4831;SDS011;2430;51.322;7.864;2023-01-29T05:58:45;18.47;;;10.20;;
4831;SDS011;2430;51.322;7.864;2023-01-29T06:01:12;17.07;;;12.40;;
4831;SDS011;2430;51.322;7.864;2023-01-29T06:03:39;14.87;;;11.70;;
4831;SDS011;2430;51.322;7.864;2023-01-29T06:06:06;21.87;;;12.40;;
4831;SDS011;2430;51.322;7.864;2023-01-29T06:08:33;12.70;;;9.93;;
4831;SDS011;2430;51.322;7.864;2023-01-29T06:11:01;20.30;;;12.90;;
4831;SDS011;2430;51.322;7.864;2023-01-29T06:13:28;15.80;;;10.60;;
4831;SDS011;2430;51.322;7.864;2023-01-29T06:15:56;13.70;;;9.80;;
4831;SDS011;2430;51.322;7.864;2023-01-29T06:18:22;20.27;;;12.23;;
4831;SDS011;2430;51.322;7.864;2023-01-29T06:20:49;18.10;;;11.00;;
4831;SDS011;2430;51.322;7.864;2023-01-29T06:23:15;23.47;;;15.37;;
4831;SDS011;2430;51.322;7.864;2023-01-29T06:25:41;23.07;;;14.53;;
4831;SDS011;2430;51.322;7.864;2023-01-29T06:28:08;25.50;;;14.20;;
4831;SDS011;2430;51.322;7.864;2023-01-29T06:30:35;15.47;;;11.90;;
4831;SDS011;2430;51.322;7.864;2023-01-29T06:33:03;21.37;;;12.87;;
4831;SDS011;2430;51.322;7.864;2023-01-29T06:35:30;20.20;;;10.37;;
4831;SDS011;2430;51.322;7.864;2023-01-29T06:37:56;30.20;;;14.00;;
4831;SDS011;2430;51.322;7.864;2023-01-29T06:40:22;26.37;;;13.27;;
4831;SDS011;2430;51.322;7.864;2023-01-29T06:42:49;20.27;;;13.33;;
4831;SDS011;2430;51.322;7.864;2023-01-29T06:45:15;20.27;;;13.13;;
4831;SDS011;2430;51.322;7.864;2023-01-29T06:47:42;20.57;;;13.90;;
4831;SDS011;2430;51.322;7.864;2023-01-29T06:50:10;14.83;;;11.67;;
4831;SDS011;2430;51.322;7.864;2023-01-29T06:52:37;15.60;;;12.60;;
4831;SDS011;2430;51.322;7.864;2023-01-29T06:55:03;17.40;;;13.97;;
4831;SDS011;2430;51.322;7.864;2023-01-29T06:57:30;16.70;;;13.90;;
4831;SDS011;2430;51.322;7.864;2023-01-29T06:59:57;15.37;;;11.57;;
4831;SDS011;2430;51.322;7.864;2023-01-29T07:02:23;23.53;;;15.00;;
4831;SDS011;2430;51.322;7.864;2023-01-29T07:04:50;21.93;;;14.73;;
4831;SDS011;2430;51.322;7.864;2023-01-29T07:07:17;18.10;;;10.73;;
4831;SDS011;2430;51.322;7.864;2023-01-29T07:09:44;15.47;;;10.37;;
4831;SDS011;2430;51.322;7.864;2023-01-29T07:12:11;16.83;;;12.10;;
4831;SDS011;2430;51.322;7.864;2023-01-29T07:14:37;17.10;;;12.40;;
4831;SDS011;2430;51.322;7.864;2023-01-29T07:17:04;23.03;;;13.70;;
4831;SDS011;2430;51.322;7.864;2023-01-29T07:19:30;16.00;;;13.00;;
4831;SDS011;2430;51.322;7.864;2023-01-29T07:21:57;23.57;;;11.30;;
4831;SDS011;2430;51.322;7.864;2023-01-29T07:24:27;21.93;;;12.63;;
4831;SDS011;2430;51.322;7.864;2023-01-29T07:26:54;14.90;;;10.83;;
4831;SDS011;2430;51.322;7.864;2023-01-29T07:29:20;17.20;;;12.03;;
4831;SDS011;2430;51.322;7.864;2023-01-29T07:31:47;18.87;;;12.83;;
4831;SDS011;2430;51.322;7.864;2023-01-29T07:34:13;16.70;;;11.30;;
4831;SDS011;2430;51.322;7.864;2023-01-29T07:36:40;16.40;;;11.00;;
4831;SDS011;2430;51.322;7.864;2023-01-29T07:39:06;15.50;;;13.20;;
4831;SDS011;2430;51.322;7.864;2023-01-29T07:41:34;18.43;;;12.13;;
4831;SDS011;2430;51.322;7.864;2023-01-29T07:44:00;14.13;;;11.00;;
4831;SDS011;2430;51.322;7.864;2023-01-29T07:46:27;19.43;;;13.23;;
4831;SDS011;2430;51.322;7.864;2023-01-29T07:48:53;18.53;;;11.77;;
4831;SDS011;2430;51.322;7.864;2023-01-29T07:51:19;18.07;;;12.40;;
4831;SDS011;2430;51.322;7.864;2023-01-29T07:53:46;19.53;;;12.57;;
4831;SDS011;2430;51.322;7.864;2023-01-29T07:56:12;14.80;;;11.53;;
4831;SDS011;2430;51.322;7.864;2023-01-29T07:58:40;21.80;;;12.27;;
4831;SDS011;2430;51.322;7.864;2023-01-29T08:01:07;21.30;;;12.70;;
4831;SDS011;2430;51.322;7.864;2023-01-29T08:03:33;19.60;;;13.20;;
4831;SDS011;2430;51.322;7.864;2023-01-29T08:06:00;13.27;;;9.93;;
4831;SDS011;2430;51.322;7.864;2023-01-29T08:08:26;18.47;;;12.63;;
4831;SDS011;2430;51.322;7.864;2023-01-29T08:10:53;17.40;;;11.67;;
4831;SDS011;2430;51.322;7.864;2023-01-29T08:13:19;23.60;;;12.07;;
4831;SDS011;2430;51.322;7.864;2023-01-29T08:15:47;19.87;;;13.50;;
4831;SDS011;2430;51.322;7.864;2023-01-29T08:18:14;16.87;;;11.70;;
4831;SDS011;2430;51.322;7.864;2023-01-29T08:20:40;20.07;;;11.80;;
4831;SDS011;2430;51.322;7.864;2023-01-29T08:23:07;20.90;;;12.93;;
4831;SDS011;2430;51.322;7.864;2023-01-29T08:25:35;15.73;;;11.37;;
4831;SDS011;2430;51.322;7.864;2023-01-29T08:28:01;16.60;;;10.90;;
4831;SDS011;2430;51.322;7.864;2023-01-29T08:30:28;19.00;;;13.57;;
4831;SDS011;2430;51.322;7.864;2023-01-29T08:32:57;24.90;;;14.00;;
4831;SDS011;2430;51.322;7.864;2023-01-29T08:35:23;25.53;;;14.80;;
4831;SDS011;2430;51.322;7.864;2023-01-29T08:37:52;22.73;;;13.30;;
4831;SDS011;2430;51.322;7.864;2023-01-29T08:40:19;18.07;;;12.33;;
4831;SDS011;2430;51.322;7.864;2023-01-29T08:42:46;20.30;;;12.63;;
4831;SDS011;2430;51.322;7.864;2023-01-29T08:45:12;18.40;;;11.87;;
4831;SDS011;2430;51.322;7.864;2023-01-29T08:47:43;18.93;;;11.70;;
4831;SDS011;2430;51.322;7.864;2023-01-29T08:50:11;15.37;;;10.57;;
4831;SDS011;2430;51.322;7.864;2023-01-29T08:52:38;16.80;;;12.00;;
4831;SDS011;2430;51.322;7.864;2023-01-29T08:55:04;17.63;;;13.13;;
4831;SDS011;2430;51.322;7.864;2023-01-29T08:57:31;19.53;;;14.03;;
4831;SDS011;2430;51.322;7.864;2023-01-29T08:59:57;15.07;;;10.57;;
4831;SDS011;2430;51.322;7.864;2023-01-29T09:02:24;15.57;;;12.27;;
4831;SDS011;2430;51.322;7.864;2023-01-29T09:04:51;23.30;;;12.47;;
4831;SDS011;2430;51.322;7.864;2023-01-29T09:07:18;22.67;;;16.13;;
4831;SDS011;2430;51.322;7.864;2023-01-29T09:09:45;24.90;;;13.73;;
4831;SDS011;2430;51.322;7.864;2023-01-29T09:12:12;18.63;;;10.20;;
4831;SDS011;2430;51.322;7.864;2023-01-29T09:14:39;22.43;;;14.70;;
4831;SDS011;2430;51.322;7.864;2023-01-29T09:17:05;18.30;;;11.80;;
4831;SDS011;2430;51.322;7.864;2023-01-29T09:19:32;25.10;;;13.87;;
4831;SDS011;2430;51.322;7.864;2023-01-29T09:21:58;23.90;;;10.33;;
4831;SDS011;2430;51.322;7.864;2023-01-29T09:24:26;16.83;;;10.80;;
4831;SDS011;2430;51.322;7.864;2023-01-29T09:26:52;19.63;;;11.90;;
4831;SDS011;2430;51.322;7.864;2023-01-29T09:29:19;15.43;;;11.50;;
4831;SDS011;2430;51.322;7.864;2023-01-29T09:31:45;18.83;;;12.53;;
4831;SDS011;2430;51.322;7.864;2023-01-29T09:34:12;19.20;;;12.47;;
4831;SDS011;2430;51.322;7.864;2023-01-29T09:36:38;23.27;;;11.63;;
4831;SDS011;2430;51.322;7.864;2023-01-29T09:39:05;17.33;;;10.67;;
4831;SDS011;2430;51.322;7.864;2023-01-29T09:41:35;21.10;;;11.30;;
4831;SDS011;2430;51.322;7.864;2023-01-29T09:44:07;9.70;;;8.60;;
4831;SDS011;2430;51.322;7.864;2023-01-29T09:46:37;11.77;;;9.30;;
4831;SDS011;2430;51.322;7.864;2023-01-29T09:49:07;23.10;;;12.83;;
4831;SDS011;2430;51.322;7.864;2023-01-29T09:51:37;14.10;;;10.03;;
4831;SDS011;2430;51.322;7.864;2023-01-29T09:54:07;15.10;;;9.90;;
4831;SDS011;2430;51.322;7.864;2023-01-29T09:56:38;14.77;;;9.80;;
4831;SDS011;2430;51.322;7.864;2023-01-29T09:59:07;14.67;;;11.30;;
4831;SDS011;2430;51.322;7.864;2023-01-29T10:01:38;11.60;;;8.63;;
4831;SDS011;2430;51.322;7.864;2023-01-29T10:04:14;18.77;;;10.37;;
4831;SDS011;2430;51.322;7.864;2023-01-29T10:06:47;15.37;;;10.17;;
4831;SDS011;2430;51.322;7.864;2023-01-29T10:09:24;20.70;;;10.90;;
4831;SDS011;2430;51.322;7.864;2023-01-29T10:11:55;14.53;;;10.10;;
4831;SDS011;2430;51.322;7.864;2023-01-29T10:14:24;15.30;;;9.93;;
4831;SDS011;2430;51.322;7.864;2023-01-29T10:16:58;11.17;;;8.97;;
4831;SDS011;2430;51.322;7.864;2023-01-29T10:19:32;18.20;;;11.33;;
4831;SDS011;2430;51.322;7.864;2023-01-29T10:25:02;14.07;;;9.83;;
4831;SDS011;2430;51.322;7.864;2023-01-29T10:27:31;27.03;;;10.40;;
4831;SDS011;2430;51.322;7.864;2023-01-29T10:29:58;14.10;;;9.30;;
4831;SDS011;2430;51.322;7.864;2023-01-29T10:32:36;14.73;;;10.60;;
4831;SDS011;2430;51.322;7.864;2023-01-29T10:35:04;16.70;;;10.23;;
4831;SDS011;2430;51.322;7.864;2023-01-29T10:37:33;16.57;;;12.37;;
4831;SDS011;2430;51.322;7.864;2023-01-29T10:40:05;13.60;;;9.60;;
4831;SDS011;2430;51.322;7.864;2023-01-29T10:42:38;14.47;;;10.23;;
4831;SDS011;2430;51.322;7.864;2023-01-29T10:45:14;18.90;;;10.10;;
4831;SDS011;2430;51.322;7.864;2023-01-29T10:47:51;16.13;;;11.13;;
4831;SDS011;2430;51.322;7.864;2023-01-29T10:50:30;17.97;;;11.83;;
4831;SDS011;2430;51.322;7.864;2023-01-29T10:55:50;17.87;;;10.93;;
4831;SDS011;2430;51.322;7.864;2023-01-29T10:58:24;14.67;;;9.90;;
4831;SDS011;2430;51.322;7.864;2023-01-29T11:00:53;17.50;;;10.27;;
4831;SDS011;2430;51.322;7.864;2023-01-29T11:03:20;11.87;;;8.53;;
4831;SDS011;2430;51.322;7.864;2023-01-29T11:05:48;12.30;;;9.47;;
4831;SDS011;2430;51.322;7.864;2023-01-29T11:08:17;10.80;;;9.70;;
4831;SDS011;2430;51.322;7.864;2023-01-29T11:10:46;14.03;;;9.00;;
4831;SDS011;2430;51.322;7.864;2023-01-29T11:13:15;14.37;;;10.70;;
4831;SDS011;2430;51.322;7.864;2023-01-29T11:15:44;18.47;;;10.83;;
4831;SDS011;2430;51.322;7.864;2023-01-29T11:18:11;14.60;;;8.63;;
4831;SDS011;2430;51.322;7.864;2023-01-29T11:20:39;14.57;;;9.57;;
4831;SDS011;2430;51.322;7.864;2023-01-29T11:23:17;11.77;;;8.03;;
4831;SDS011;2430;51.322;7.864;2023-01-29T11:25:50;11.47;;;8.57;;
4831;SDS011;2430;51.322;7.864;2023-01-29T11:28:33;14.13;;;8.70;;
4831;SDS011;2430;51.322;7.864;2023-01-29T11:31:02;12.50;;;9.23;;
4831;SDS011;2430;51.322;7.864;2023-01-29T11:33:28;16.20;;;9.17;;
4831;SDS011;2430;51.322;7.864;2023-01-29T11:35:55;14.90;;;10.33;;
4831;SDS011;2430;51.322;7.864;2023-01-29T11:38:23;14.07;;;11.03;;
4831;SDS011;2430;51.322;7.864;2023-01-29T11:40:50;21.73;;;9.50;;
4831;SDS011;2430;51.322;7.864;2023-01-29T11:43:18;9.90;;;8.60;;
4831;SDS011;2430;51.322;7.864;2023-01-29T11:45:44;16.77;;;8.70;;
4831;SDS011;2430;51.322;7.864;2023-01-29T11:48:14;10.87;;;7.33;;
4831;SDS011;2430;51.322;7.864;2023-01-29T11:50:41;10.33;;;8.00;;
4831;SDS011;2430;51.322;7.864;2023-01-29T11:53:17;13.90;;;10.07;;
4831;SDS011;2430;51.322;7.864;2023-01-29T11:55:46;16.67;;;10.30;;
4831;SDS011;2430;51.322;7.864;2023-01-29T11:58:14;18.40;;;9.90;;
4831;SDS011;2430;51.322;7.864;2023-01-29T12:00:45;17.97;;;10.63;;
4831;SDS011;2430;51.322;7.864;2023-01-29T12:03:12;16.33;;;9.80;;
4831;SDS011;2430;51.322;7.864;2023-01-29T12:08:18;10.60;;;8.40;;
4831;SDS011;2430;51.322;7.864;2023-01-29T12:10:47;18.03;;;8.43;;
4831;SDS011;2430;51.322;7.864;2023-01-29T12:13:17;17.03;;;7.37;;
4831;SDS011;2430;51.322;7.864;2023-01-29T12:15:47;12.67;;;8.83;;
4831;SDS011;2430;51.322;7.864;2023-01-29T12:18:15;13.50;;;8.57;;
4831;SDS011;2430;51.322;7.864;2023-01-29T12:20:52;12.17;;;8.40;;
4831;SDS011;2430;51.322;7.864;2023-01-29T12:23:22;14.90;;;8.67;;
4831;SDS011;2430;51.322;7.864;2023-01-29T12:25:54;13.13;;;8.40;;
4831;SDS011;2430;51.322;7.864;2023-01-29T12:28:35;13.70;;;9.30;;
4831;SDS011;2430;51.322;7.864;2023-01-29T12:31:07;17.53;;;10.43;;
4831;SDS011;2430;51.322;7.864;2023-01-29T12:33:38;10.97;;;7.80;;
4831;SDS011;2430;51.322;7.864;2023-01-29T12:36:11;12.67;;;8.60;;
4831;SDS011;2430;51.322;7.864;2023-01-29T12:38:38;12.80;;;8.57;;
4831;SDS011;2430;51.322;7.864;2023-01-29T12:41:07;17.20;;;8.57;;
4831;SDS011;2430;51.322;7.864;2023-01-29T12:43:37;14.33;;;9.17;;
4831;SDS011;2430;51.322;7.864;2023-01-29T12:46:05;13.20;;;8.70;;
4831;SDS011;2430;51.322;7.864;2023-01-29T12:48:33;12.43;;;9.10;;
4831;SDS011;2430;51.322;7.864;2023-01-29T12:51:03;13.33;;;8.87;;
4831;SDS011;2430;51.322;7.864;2023-01-29T12:53:34;14.03;;;7.83;;
4831;SDS011;2430;51.322;7.864;2023-01-29T12:56:03;13.30;;;8.20;;
4831;SDS011;2430;51.322;7.864;2023-01-29T12:58:31;12.93;;;9.70;;
4831;SDS011;2430;51.322;7.864;2023-01-29T13:01:00;17.90;;;9.93;;
4831;SDS011;2430;51.322;7.864;2023-01-29T13:03:29;11.23;;;7.40;;
4831;SDS011;2430;51.322;7.864;2023-01-29T13:05:59;13.43;;;8.80;;
4831;SDS011;2430;51.322;7.864;2023-01-29T13:08:26;11.50;;;7.90;;
4831;SDS011;2430;51.322;7.864;2023-01-29T13:10:57;11.40;;;9.17;;
4831;SDS011;2430;51.322;7.864;2023-01-29T13:13:27;16.37;;;8.90;;
4831;SDS011;2430;51.322;7.864;2023-01-29T13:15:54;15.17;;;9.63;;
4831;SDS011;2430;51.322;7.864;2023-01-29T13:18:32;12.57;;;8.30;;
4831;SDS011;2430;51.322;7.864;2023-01-29T13:21:02;14.30;;;10.17;;
4831;SDS011;2430;51.322;7.864;2023-01-29T13:23:30;11.57;;;8.80;;
4831;SDS011;2430;51.322;7.864;2023-01-29T13:25:58;8.50;;;7.60;;
4831;SDS011;2430;51.322;7.864;2023-01-29T13:28:25;14.60;;;8.93;;
4831;SDS011;2430;51.322;7.864;2023-01-29T13:31:17;14.50;;;8.20;;
4831;SDS011;2430;51.322;7.864;2023-01-29T13:33:50;9.93;;;7.30;;
4831;SDS011;2430;51.322;7.864;2023-01-29T13:36:18;13.40;;;7.33;;
4831;SDS011;2430;51.322;7.864;2023-01-29T13:38:49;11.73;;;8.33;;
4831;SDS011;2430;51.322;7.864;2023-01-29T13:41:29;12.97;;;8.37;;
4831;SDS011;2430;51.322;7.864;2023-01-29T13:43:56;10.00;;;8.20;;
4831;SDS011;2430;51.322;7.864;2023-01-29T13:46:23;9.63;;;7.90;;
4831;SDS011;2430;51.322;7.864;2023-01-29T13:48:49;12.83;;;7.53;;
4831;SDS011;2430;51.322;7.864;2023-01-29T13:51:17;14.30;;;6.73;;
4831;SDS011;2430;51.322;7.864;2023-01-29T13:53:50;7.90;;;5.73;;
4831;SDS011;2430;51.322;7.864;2023-01-29T13:56:29;12.73;;;8.73;;
4831;SDS011;2430;51.322;7.864;2023-01-29T13:58:56;12.57;;;6.40;;
4831;SDS011;2430;51.322;7.864;2023-01-29T14:04:14;12.73;;;7.90;;
4831;SDS011;2430;51.322;7.864;2023-01-29T14:06:49;9.53;;;7.57;;
4831;SDS011;2430;51.322;7.864;2023-01-29T14:09:32;11.00;;;7.33;;
4831;SDS011;2430;51.322;7.864;2023-01-29T14:12:00;11.10;;;7.47;;
4831;SDS011;2430;51.322;7.864;2023-01-29T14:17:14;10.77;;;7.60;;
4831;SDS011;2430;51.322;7.864;2023-01-29T14:19:45;10.40;;;7.30;;
4831;SDS011;2430;51.322;7.864;2023-01-29T14:22:16;8.83;;;6.07;;
4831;SDS011;2430;51.322;7.864;2023-01-29T14:24:44;12.80;;;8.10;;
4831;SDS011;2430;51.322;7.864;2023-01-29T14:27:14;10.70;;;8.57;;
4831;SDS011;2430;51.322;7.864;2023-01-29T14:29:44;8.70;;;7.00;;
4831;SDS011;2430;51.322;7.864;2023-01-29T14:32:12;13.60;;;7.33;;
4831;SDS011;2430;51.322;7.864;2023-01-29T14:34:40;10.40;;;7.53;;
4831;SDS011;2430;51.322;7.864;2023-01-29T14:37:18;11.67;;;8.20;;
4831;SDS011;2430;51.322;7.864;2023-01-29T14:39:46;9.83;;;7.67;;
4831;SDS011;2430;51.322;7.864;2023-01-29T14:42:17;13.70;;;7.53;;
4831;SDS011;2430;51.322;7.864;2023-01-29T14:53:05;18.33;;;9.47;;
4831;SDS011;2430;51.322;7.864;2023-01-29T14:55:36;10.57;;;7.03;;
4831;SDS011;2430;51.322;7.864;2023-01-29T14:58:04;8.77;;;6.63;;
4831;SDS011;2430;51.322;7.864;2023-01-29T15:00:32;13.13;;;7.80;;
4831;SDS011;2430;51.322;7.864;2023-01-29T15:03:03;13.90;;;8.70;;
4831;SDS011;2430;51.322;7.864;2023-01-29T15:05:37;14.23;;;8.33;;
4831;SDS011;2430;51.322;7.864;2023-01-29T15:08:05;8.73;;;7.00;;
4831;SDS011;2430;51.322;7.864;2023-01-29T15:10:35;10.40;;;7.30;;
4831;SDS011;2430;51.322;7.864;2023-01-29T15:13:06;9.37;;;6.47;;
4831;SDS011;2430;51.322;7.864;2023-01-29T15:15:35;7.23;;;5.60;;
4831;SDS011;2430;51.322;7.864;2023-01-29T15:18:03;10.40;;;7.27;;
4831;SDS011;2430;51.322;7.864;2023-01-29T15:20:32;9.90;;;5.60;;
4831;SDS011;2430;51.322;7.864;2023-01-29T15:22:59;14.80;;;7.20;;
4831;SDS011;2430;51.322;7.864;2023-01-29T15:25:28;12.70;;;7.63;;
4831;SDS011;2430;51.322;7.864;2023-01-29T15:27:55;7.33;;;6.30;;
4831;SDS011;2430;51.322;7.864;2023-01-29T15:30:25;10.23;;;6.57;;
4831;SDS011;2430;51.322;7.864;2023-01-29T15:32:53;9.20;;;6.33;;
4831;SDS011;2430;51.322;7.864;2023-01-29T15:35:25;7.70;;;5.37;;
4831;SDS011;2430;51.322;7.864;2023-01-29T15:37:58;9.33;;;6.00;;
4831;SDS011;2430;51.322;7.864;2023-01-29T15:40:26;8.53;;;6.13;;